Keene, NY

8:30 AM EDT on August 04, 2015 (GMT -0400)
Sentinel Range Foothills | | Change Station
CLOSE
Current Station
Personal Weather Station
Location: Keene, NY
Elevation: 1165 ft
Nearby Weather Stations

Elev 1165 ft 44.27 °N, 73.81 °W | Updated 20 seconds ago

Mostly Cloudy
Mostly Cloudy
63.3 °F
Feels Like 63.3 °F
N
0.0
Wind Variable Wind from NE
Gusts 0.0 mph

Today
High -- | Low -- °F
--% Chance of Precip.
Yesterday
High -- | Low -- °F
Precip. -- in
5:45 AM 8:16 PM
Waning Gibbous, 78% visible
Pressure 29.85 in
Visibility 4.0 miles
Clouds Scattered Clouds 1100 ft
Mostly Cloudy 3500 ft
Overcast 7500 ft
Dew Point 60 °F
Humidity 90%
Rainfall 0.00 in
Snow Depth Not available.
UV 1 out of 12
Pollen 4.60 out of 12
Air Quality Not available.
Flu Activity Not available.
SPECI KSLK 041227Z AUTO 23005KT 4SM RA BR SCT011 BKN035 OVC075 15/14 A2985 RMK AO2 LTG DSNT NE AND E RAE1158B05 TSE07 P0012 T01500144

More Conditions Fewer Conditions

Pressure 29.85 in
Visibility 4.0 miles
Clouds Scattered Clouds 1100 ft
Mostly Cloudy 3500 ft
Overcast 7500 ft
Dew Point 60 °F
Humidity 90%
Rainfall 0.00 in
Snow Depth Not available.
UV 1 out of 12
Pollen 4.60 out of 12
Air Quality Not available.
Flu Activity Not available.
SPECI KSLK 041227Z AUTO 23005KT 4SM RA BR SCT011 BKN035 OVC075 15/14 A2985 RMK AO2 LTG DSNT NE AND E RAE1158B05 TSE07 P0012 T01500144

More Conditions Fewer Conditions

10-Day Weather Forecast

×

Almanac

Astronomy

Aug. 04, 2015 Rise Set
Actual Time
Civil Twilight
Nautical Twilight
Astronomical Twilight
Moon
Length of Visible Light
Length of Day
Tomorrow will be .
, % of the Moon is Illuminated

Today's Extremes

State Highs State Lows

Community

WunderPhotos

Upload Photos

1,843,911 photos uploaded!

WunderBlogs® & News

Nearby

Air Quality

  Air Quality AQ Index Pollutant
Not available.

Snow Depth

Station Depth Elevation

Earthquake Activity

City Distance Mag. Time & Date
Minimum magnitude displayed is 2.5.

Coastal Water Temperatures

Place Temperature

Stations

Nearby Weather Stations

Station Location Temp. Windchill Dew Point Humidity Wind Precip. Elev Updated Type